createdAt,value
2018-02-11T00:00:23.279Z,0.00
2018-02-11T00:01:23.264Z,0.00
2018-02-11T00:02:23.241Z,0.00
2018-02-11T00:03:23.222Z,0.00
2018-02-11T00:04:23.225Z,0.00
2018-02-11T00:05:23.182Z,0.00
2018-02-11T00:06:23.780Z,0.00
2018-02-11T00:07:23.150Z,0.00
2018-02-11T00:08:23.123Z,0.00
2018-02-11T00:09:23.100Z,0.00
2018-02-11T00:10:23.080Z,0.00
2018-02-11T00:11:44.070Z,0.00
2018-02-11T00:12:23.041Z,0.00
2018-02-11T00:13:23.038Z,0.00
2018-02-11T00:14:23.001Z,0.00
2018-02-11T00:15:22.992Z,0.00
2018-02-11T00:16:22.961Z,0.00
2018-02-11T00:17:22.949Z,0.00
2018-02-11T00:18:22.918Z,0.00
2018-02-11T00:19:22.898Z,0.00
2018-02-11T00:20:22.891Z,0.00
2018-02-11T00:21:22.869Z,0.00
2018-02-11T00:22:22.840Z,0.00
2018-02-11T00:23:22.856Z,0.00
2018-02-11T00:24:22.797Z,0.00
2018-02-11T00:25:22.774Z,0.00
2018-02-11T00:26:22.760Z,0.00
2018-02-11T00:27:22.760Z,0.00
2018-02-11T00:28:22.717Z,0.00
2018-02-11T00:29:22.686Z,0.00
2018-02-11T00:30:22.673Z,0.00
2018-02-11T00:31:22.654Z,0.00
2018-02-11T00:32:23.299Z,0.00
2018-02-11T00:33:22.631Z,0.00
2018-02-11T00:34:22.588Z,0.00
2018-02-11T00:35:22.570Z,0.00
2018-02-11T00:36:22.557Z,0.00
2018-02-11T00:37:22.528Z,0.00
2018-02-11T00:38:22.507Z,0.00
2018-02-11T00:39:22.505Z,0.00
2018-02-11T00:40:22.468Z,0.00
2018-02-11T00:41:22.503Z,0.00
2018-02-11T00:42:23.283Z,0.00
2018-02-11T00:43:22.426Z,0.00
2018-02-11T00:44:22.385Z,0.00
2018-02-11T00:45:22.362Z,0.00
2018-02-11T00:46:22.346Z,0.00
2018-02-11T00:47:22.328Z,0.00
2018-02-11T00:48:22.296Z,0.00
2018-02-11T00:49:22.299Z,0.00
2018-02-11T00:50:22.254Z,0.00
2018-02-11T00:51:22.242Z,0.00
2018-02-11T00:52:22.216Z,0.00
2018-02-11T00:53:22.198Z,0.00
2018-02-11T00:54:22.191Z,0.00
2018-02-11T00:55:43.178Z,0.00
2018-02-11T00:56:22.136Z,0.00
2018-02-11T00:57:22.116Z,0.00
2018-02-11T00:58:22.844Z,0.00
2018-02-11T00:59:22.074Z,0.00
2018-02-11T01:00:22.064Z,0.00
2018-02-11T01:01:22.047Z,0.00
2018-02-11T01:02:22.012Z,0.00
2018-02-11T01:03:21.992Z,0.00
2018-02-11T01:04:22.806Z,0.00
2018-02-11T01:05:21.952Z,0.00
2018-02-11T01:06:23.766Z,0.00
2018-02-11T01:07:21.907Z,0.00
2018-02-11T01:08:21.887Z,0.00
2018-02-11T01:09:21.884Z,0.00
2018-02-11T01:10:21.864Z,0.00
2018-02-11T01:11:21.827Z,0.00
2018-02-11T01:12:21.833Z,0.00
2018-02-11T01:13:21.786Z,0.00
2018-02-11T01:14:21.765Z,0.00
2018-02-11T01:15:22.300Z,0.00
2018-02-11T01:16:21.736Z,0.00
2018-02-11T01:17:21.714Z,0.00
2018-02-11T01:18:21.675Z,0.00
2018-02-11T01:19:21.660Z,0.00
2018-02-11T01:20:21.638Z,0.00
2018-02-11T01:21:21.619Z,0.00
2018-02-11T01:22:21.614Z,0.00
2018-02-11T01:23:21.589Z,0.00
2018-02-11T01:24:22.302Z,0.00
2018-02-11T01:25:21.535Z,0.00
2018-02-11T01:26:21.510Z,0.00
2018-02-11T01:27:21.489Z,0.00
2018-02-11T01:28:21.491Z,0.00
2018-02-11T01:29:21.446Z,0.00
2018-02-11T01:30:22.278Z,0.00
2018-02-11T01:31:21.417Z,0.00
2018-02-11T01:32:21.386Z,0.00
2018-02-11T01:33:21.379Z,0.00
2018-02-11T01:34:21.347Z,0.00
2018-02-11T01:35:21.328Z,0.00
2018-02-11T01:36:21.306Z,0.00
2018-02-11T01:37:21.279Z,0.00
2018-02-11T01:38:21.279Z,0.00
2018-02-11T01:39:21.248Z,0.00
2018-02-11T01:40:21.283Z,0.00
2018-02-11T01:41:21.201Z,0.00
2018-02-11T01:42:21.195Z,0.00
2018-02-11T01:43:21.157Z,0.00
2018-02-11T01:44:21.132Z,0.00
2018-02-11T01:45:21.129Z,0.00
2018-02-11T01:46:21.094Z,0.00
2018-02-11T01:47:21.075Z,0.00
2018-02-11T01:48:21.055Z,0.00
2018-02-11T01:49:21.029Z,0.00
2018-02-11T01:50:22.768Z,0.00
2018-02-11T01:51:20.989Z,0.00
2018-02-11T01:52:20.974Z,0.00
2018-02-11T01:53:21.810Z,0.00
2018-02-11T01:54:21.805Z,0.00
2018-02-11T01:55:20.958Z,0.00
2018-02-11T01:56:22.768Z,0.00
2018-02-11T01:57:21.769Z,0.00
2018-02-11T01:58:20.838Z,0.00
2018-02-11T01:59:20.827Z,0.00
2018-02-11T02:00:20.800Z,0.00
2018-02-11T02:01:20.793Z,0.00
2018-02-11T02:02:20.759Z,0.00
2018-02-11T02:03:20.750Z,0.00
2018-02-11T02:04:20.717Z,0.00
2018-02-11T02:05:20.698Z,0.00
2018-02-11T02:06:20.692Z,0.00
2018-02-11T02:07:20.656Z,0.00
2018-02-11T02:08:20.628Z,0.00
2018-02-11T02:09:20.619Z,0.00
2018-02-11T02:10:20.595Z,0.00
2018-02-11T02:11:20.590Z,0.00
2018-02-11T02:12:20.544Z,0.00
2018-02-11T02:13:20.526Z,0.00
2018-02-11T02:14:20.502Z,0.00
2018-02-11T02:15:20.484Z,0.00
2018-02-11T02:16:21.271Z,0.00
2018-02-11T02:17:20.454Z,0.00
2018-02-11T02:18:20.435Z,0.00
2018-02-11T02:19:20.404Z,0.00
2018-02-11T02:20:20.382Z,0.00
2018-02-11T02:21:20.354Z,0.00
2018-02-11T02:22:20.354Z,0.00
2018-02-11T02:23:20.319Z,0.00
2018-02-11T02:24:20.300Z,0.00
2018-02-11T02:25:20.277Z,0.00
2018-02-11T02:26:20.255Z,0.00
2018-02-11T02:27:20.304Z,0.00
2018-02-11T02:28:20.239Z,0.00
2018-02-11T02:29:20.192Z,0.00
2018-02-11T02:30:20.170Z,0.00
2018-02-11T02:31:20.146Z,0.00
2018-02-11T02:32:20.130Z,0.00
2018-02-11T02:33:20.106Z,0.00
2018-02-11T02:34:20.109Z,0.00
2018-02-11T02:35:20.087Z,0.00
2018-02-11T02:36:20.059Z,0.00
2018-02-11T02:37:20.041Z,0.00
2018-02-11T02:38:20.005Z,0.00
2018-02-11T02:39:20.022Z,0.00
2018-02-11T02:40:19.979Z,0.00
2018-02-11T02:41:19.939Z,0.00
2018-02-11T02:42:19.916Z,0.00
2018-02-11T02:43:19.902Z,0.00
2018-02-11T02:44:19.879Z,0.00
2018-02-11T02:45:19.891Z,0.00
2018-02-11T02:46:19.846Z,0.00
2018-02-11T02:47:19.812Z,0.00
2018-02-11T02:48:19.803Z,0.00
2018-02-11T02:49:19.776Z,0.00
2018-02-11T02:50:19.770Z,0.00
2018-02-11T02:51:19.759Z,0.00
2018-02-11T02:52:19.713Z,0.00
2018-02-11T02:53:19.689Z,0.00
2018-02-11T02:54:19.671Z,0.00
2018-02-11T02:55:19.651Z,0.00
2018-02-11T02:56:19.622Z,0.00
2018-02-11T02:57:19.631Z,0.00
2018-02-11T02:58:19.598Z,0.00
2018-02-11T02:59:20.311Z,0.00
2018-02-11T03:00:19.542Z,0.00
2018-02-11T03:01:19.548Z,0.00
2018-02-11T03:02:19.523Z,0.00
2018-02-11T03:03:19.491Z,0.00
2018-02-11T03:04:19.461Z,0.00
2018-02-11T03:05:19.440Z,0.00
2018-02-11T03:06:19.415Z,0.00
2018-02-11T03:07:19.417Z,0.00
2018-02-11T03:08:19.395Z,0.00
2018-02-11T03:09:19.365Z,0.00
2018-02-11T03:10:19.335Z,0.00
2018-02-11T03:11:19.321Z,0.00
2018-02-11T03:12:19.289Z,0.00
2018-02-11T03:13:19.297Z,0.00
2018-02-11T03:14:19.252Z,0.00
2018-02-11T03:15:19.231Z,0.00
2018-02-11T03:16:19.803Z,0.00
2018-02-11T03:17:19.192Z,0.00
2018-02-11T03:18:19.170Z,0.00
2018-02-11T03:19:20.773Z,0.00
2018-02-11T03:20:19.814Z,0.00
2018-02-11T03:21:19.103Z,0.00
2018-02-11T03:22:19.088Z,0.00
2018-02-11T03:23:40.089Z,0.00
2018-02-11T03:24:19.042Z,0.00
2018-02-11T03:25:19.029Z,0.00
2018-02-11T03:26:19.005Z,0.00
2018-02-11T03:27:18.984Z,0.00
2018-02-11T03:28:18.981Z,0.00
2018-02-11T03:29:18.949Z,0.00
2018-02-11T03:30:18.950Z,0.00
2018-02-11T03:31:19.773Z,0.00
2018-02-11T03:32:18.880Z,0.00
2018-02-11T03:33:18.880Z,0.00
2018-02-11T03:34:19.811Z,0.00
2018-02-11T03:35:18.837Z,0.00
2018-02-11T03:36:18.804Z,0.00
2018-02-11T03:37:18.773Z,0.00
2018-02-11T03:38:18.756Z,0.00
2018-02-11T03:39:18.732Z,0.00
2018-02-11T03:40:18.772Z,0.00
2018-02-11T03:41:18.707Z,0.00
2018-02-11T03:42:18.670Z,0.00
2018-02-11T03:43:18.644Z,0.00
2018-02-11T03:44:18.648Z,0.00
2018-02-11T03:45:18.649Z,0.00
2018-02-11T03:46:18.619Z,0.00
2018-02-11T03:47:18.562Z,0.00
2018-02-11T03:48:18.570Z,0.00
2018-02-11T03:49:18.540Z,0.00
2018-02-11T03:50:19.273Z,0.00
2018-02-11T03:51:19.274Z,0.00
2018-02-11T03:52:18.456Z,0.00
2018-02-11T03:53:18.488Z,0.00
2018-02-11T03:54:18.432Z,0.00
2018-02-11T03:55:18.421Z,0.00
2018-02-11T03:56:18.432Z,0.00
2018-02-11T03:57:18.417Z,0.00
2018-02-11T03:58:18.352Z,0.00
2018-02-11T03:59:19.274Z,0.00
2018-02-11T04:00:18.293Z,0.00
2018-02-11T04:01:18.339Z,0.00
2018-02-11T04:02:18.248Z,0.00
2018-02-11T04:03:18.253Z,0.00
2018-02-11T04:04:18.218Z,0.00
2018-02-11T04:05:18.200Z,0.00
2018-02-11T04:06:18.166Z,0.00
2018-02-11T04:07:18.172Z,0.00
2018-02-11T04:08:18.137Z,0.00
2018-02-11T04:09:18.102Z,0.00
2018-02-11T04:10:18.102Z,0.00
2018-02-11T04:11:18.064Z,0.00
2018-02-11T04:12:18.058Z,0.00
2018-02-11T04:13:18.019Z,0.00
2018-02-11T04:14:18.000Z,0.00
2018-02-11T04:15:17.981Z,0.00
2018-02-11T04:16:17.956Z,0.00
2018-02-11T04:17:17.949Z,0.00
2018-02-11T04:18:17.952Z,0.00
2018-02-11T04:19:17.896Z,0.00
2018-02-11T04:20:17.896Z,0.00
2018-02-11T04:21:18.775Z,0.00
2018-02-11T04:22:17.831Z,0.00
2018-02-11T04:23:17.831Z,0.00
2018-02-11T04:24:17.786Z,0.00
2018-02-11T04:25:17.771Z,0.00
2018-02-11T04:26:17.749Z,0.00
2018-02-11T04:27:18.275Z,0.00
2018-02-11T04:28:17.707Z,0.00
2018-02-11T04:29:18.275Z,0.00
2018-02-11T04:30:17.681Z,0.00
2018-02-11T04:31:17.644Z,0.00
2018-02-11T04:32:17.633Z,0.00
2018-02-11T04:33:17.601Z,0.00
2018-02-11T04:34:17.576Z,0.00
2018-02-11T04:35:17.578Z,0.00
2018-02-11T04:36:17.538Z,0.00
2018-02-11T04:37:17.517Z,0.00
2018-02-11T04:38:19.276Z,0.00
2018-02-11T04:39:17.479Z,0.00
2018-02-11T04:40:17.479Z,0.00
2018-02-11T04:41:17.451Z,0.00
2018-02-11T04:42:17.419Z,0.00
2018-02-11T04:43:17.390Z,0.00
2018-02-11T04:44:17.376Z,0.00
2018-02-11T04:45:17.359Z,0.00
2018-02-11T04:46:17.350Z,0.00
2018-02-11T04:47:17.312Z,0.00
2018-02-11T04:48:17.306Z,0.00
2018-02-11T04:49:17.272Z,0.00
2018-02-11T04:50:17.251Z,0.00
2018-02-11T04:51:17.233Z,0.00
2018-02-11T04:52:17.208Z,0.00
2018-02-11T04:53:17.206Z,0.00
2018-02-11T04:54:17.163Z,0.00
2018-02-11T04:55:17.150Z,0.00
2018-02-11T04:56:17.123Z,0.00
2018-02-11T04:57:17.782Z,0.00
2018-02-11T04:58:17.083Z,0.00
2018-02-11T04:59:17.084Z,0.00
2018-02-11T05:00:17.044Z,0.00
2018-02-11T05:01:17.019Z,0.00
2018-02-11T05:02:17.007Z,0.00
2018-02-11T05:03:16.978Z,0.00
2018-02-11T05:04:16.967Z,0.00
2018-02-11T05:05:16.957Z,0.00
2018-02-11T05:06:16.909Z,0.00
2018-02-11T05:07:16.911Z,0.00
2018-02-11T05:08:18.781Z,0.00
2018-02-11T05:09:16.849Z,0.00
2018-02-11T05:10:16.860Z,0.00
2018-02-11T05:11:16.836Z,0.00
2018-02-11T05:12:17.787Z,0.00
2018-02-11T05:13:16.778Z,0.00
2018-02-11T05:14:16.752Z,0.00
2018-02-11T05:15:16.747Z,0.00
2018-02-11T05:16:17.314Z,0.00
2018-02-11T05:17:16.705Z,0.00
2018-02-11T05:18:16.675Z,0.00
2018-02-11T05:19:16.651Z,0.00
2018-02-11T05:20:16.644Z,0.00
2018-02-11T05:21:16.614Z,0.00
2018-02-11T05:22:16.589Z,0.00
2018-02-11T05:23:16.579Z,0.00
2018-02-11T05:24:16.575Z,0.00
2018-02-11T05:25:16.520Z,0.00
2018-02-11T05:26:16.506Z,0.00
2018-02-11T05:27:16.479Z,0.00
2018-02-11T05:28:16.472Z,0.00
2018-02-11T05:29:16.459Z,0.00
2018-02-11T05:30:16.524Z,0.00
2018-02-11T05:31:16.417Z,0.00
2018-02-11T05:32:16.387Z,0.00
2018-02-11T05:33:16.361Z,0.00
2018-02-11T05:34:16.355Z,0.00
2018-02-11T05:35:16.345Z,0.00
2018-02-11T05:36:16.300Z,0.00
2018-02-11T05:37:16.808Z,0.00
2018-02-11T05:38:16.253Z,0.00
2018-02-11T05:39:16.257Z,0.00
2018-02-11T05:40:16.222Z,0.00
2018-02-11T05:41:16.196Z,0.00
2018-02-11T05:42:16.201Z,0.00
2018-02-11T05:43:16.166Z,0.00
2018-02-11T05:44:16.130Z,0.00
2018-02-11T05:45:16.112Z,0.00
2018-02-11T05:46:16.106Z,0.00
2018-02-11T05:47:16.085Z,0.00
2018-02-11T05:48:16.780Z,0.00
2018-02-11T05:49:16.780Z,0.00
2018-02-11T05:50:16.007Z,0.00
2018-02-11T05:51:15.993Z,0.00
2018-02-11T05:52:16.866Z,0.00
2018-02-11T05:53:15.964Z,0.00
2018-02-11T05:54:15.933Z,0.00
2018-02-11T05:55:15.914Z,0.00
2018-02-11T05:56:16.799Z,0.00
2018-02-11T05:57:15.864Z,0.00
2018-02-11T05:58:15.858Z,0.00
2018-02-11T05:59:16.779Z,0.00
2018-02-11T06:00:16.311Z,0.00
2018-02-11T06:01:15.782Z,0.00
2018-02-11T06:02:15.761Z,0.00
2018-02-11T06:03:15.757Z,0.00
2018-02-11T06:04:15.723Z,0.00
2018-02-11T06:05:15.730Z,0.00
2018-02-11T06:06:15.683Z,0.00
2018-02-11T06:07:15.660Z,0.00
2018-02-11T06:08:15.643Z,0.00
2018-02-11T06:09:15.641Z,0.00
2018-02-11T06:10:15.614Z,0.00
2018-02-11T06:11:15.580Z,0.00
2018-02-11T06:12:15.557Z,0.00
2018-02-11T06:13:15.543Z,0.00
2018-02-11T06:14:15.517Z,0.00
2018-02-11T06:15:15.516Z,0.00
2018-02-11T06:16:15.482Z,0.00
2018-02-11T06:17:15.458Z,0.00
2018-02-11T06:18:15.439Z,0.00
2018-02-11T06:19:15.425Z,0.00
2018-02-11T06:20:16.281Z,0.00
2018-02-11T06:21:18.349Z,0.00
2018-02-11T06:22:15.363Z,0.00
2018-02-11T06:23:15.849Z,0.00
2018-02-11T06:24:15.349Z,0.00
2018-02-11T06:25:17.281Z,0.00
2018-02-11T06:26:15.286Z,0.00
2018-02-11T06:27:15.273Z,0.00
2018-02-11T06:28:15.241Z,0.00
2018-02-11T06:29:15.783Z,0.00
2018-02-11T06:30:15.201Z,0.00
2018-02-11T06:31:15.178Z,0.00
2018-02-11T06:32:15.171Z,0.00
2018-02-11T06:33:15.154Z,0.00
2018-02-11T06:34:15.111Z,4.00
2018-02-11T06:35:15.097Z,4.00
2018-02-11T06:36:15.074Z,0.00
2018-02-11T06:37:15.056Z,0.00
2018-02-11T06:38:15.054Z,4.00
2018-02-11T06:39:15.018Z,4.00
2018-02-11T06:40:14.996Z,4.00
2018-02-11T06:41:14.991Z,8.00
2018-02-11T06:42:14.960Z,4.00
2018-02-11T06:43:16.782Z,8.00
2018-02-11T06:44:14.929Z,8.00
2018-02-11T06:45:14.896Z,12.00
2018-02-11T06:46:14.876Z,8.00
2018-02-11T06:47:14.866Z,12.00
2018-02-11T06:48:14.836Z,12.00
2018-02-11T06:49:14.844Z,12.00
2018-02-11T06:50:14.814Z,16.00
2018-02-11T06:51:14.775Z,16.00
2018-02-11T06:52:14.766Z,20.00
2018-02-11T06:53:14.747Z,24.00
2018-02-11T06:54:14.717Z,28.00
2018-02-11T06:55:14.716Z,28.00
2018-02-11T06:56:14.695Z,28.00
2018-02-11T06:57:14.650Z,36.00
2018-02-11T06:58:14.635Z,36.00
2018-02-11T06:59:14.615Z,44.00
2018-02-11T07:00:14.603Z,48.00
2018-02-11T07:01:14.574Z,48.00
2018-02-11T07:02:14.571Z,56.00
2018-02-11T07:03:14.532Z,72.00
2018-02-11T07:04:14.515Z,96.00
2018-02-11T07:05:14.493Z,100.00
2018-02-11T07:06:14.470Z,96.00
2018-02-11T07:07:14.469Z,92.00
2018-02-11T07:08:14.445Z,104.00
2018-02-11T07:09:14.415Z,116.00
2018-02-11T07:10:14.391Z,120.00
2018-02-11T07:11:14.386Z,148.00
2018-02-11T07:12:14.375Z,156.00
2018-02-11T07:13:15.334Z,164.00
2018-02-11T07:14:14.307Z,196.00
2018-02-11T07:15:14.299Z,188.00
2018-02-11T07:16:14.294Z,156.00
2018-02-11T07:17:14.255Z,152.00
2018-02-11T07:18:14.227Z,152.00
2018-02-11T07:19:14.229Z,140.00
2018-02-11T07:20:15.285Z,152.00
2018-02-11T07:21:14.188Z,184.00
2018-02-11T07:22:14.170Z,160.00
2018-02-11T07:23:14.134Z,168.00
2018-02-11T07:24:14.120Z,160.00
2018-02-11T07:25:14.088Z,160.00
2018-02-11T07:26:14.068Z,160.00
2018-02-11T07:27:14.138Z,156.00
2018-02-11T07:28:14.124Z,156.00
2018-02-11T07:29:14.012Z,192.00
2018-02-11T07:30:13.995Z,180.00
2018-02-11T07:31:13.993Z,228.00
2018-02-11T07:32:34.972Z,228.00
2018-02-11T07:33:13.937Z,180.00
2018-02-11T07:34:13.925Z,168.00
2018-02-11T07:35:13.898Z,196.00
2018-02-11T07:36:13.879Z,204.00
2018-02-11T07:37:13.872Z,212.00
2018-02-11T07:38:13.836Z,220.00
2018-02-11T07:39:13.842Z,200.00
2018-02-11T07:40:13.796Z,208.00
2018-02-11T07:41:13.778Z,248.00
2018-02-11T07:42:13.761Z,284.00
2018-02-11T07:43:14.311Z,284.00
2018-02-11T07:44:13.740Z,308.00
2018-02-11T07:45:13.699Z,296.00
2018-02-11T07:46:13.682Z,260.00
2018-02-11T07:47:13.658Z,200.00
2018-02-11T07:48:13.646Z,216.00
2018-02-11T07:49:13.634Z,216.00
2018-02-11T07:50:13.603Z,212.00
2018-02-11T07:51:13.582Z,240.00
2018-02-11T07:52:13.564Z,232.00
2018-02-11T07:53:13.539Z,212.00
2018-02-11T07:54:13.521Z,236.00
2018-02-11T07:55:13.517Z,264.00
2018-02-11T07:56:13.484Z,284.00
2018-02-11T07:57:13.458Z,336.00
2018-02-11T07:58:13.446Z,344.00
2018-02-11T07:59:13.421Z,320.00
2018-02-11T08:00:13.425Z,288.00
2018-02-11T08:01:13.382Z,304.00
2018-02-11T08:02:13.363Z,300.00
2018-02-11T08:03:13.347Z,296.00
2018-02-11T08:04:13.325Z,396.00
2018-02-11T08:05:13.325Z,372.00
2018-02-11T08:06:13.286Z,460.00
2018-02-11T08:07:13.269Z,440.00
2018-02-11T08:08:13.248Z,456.00
2018-02-11T08:09:13.231Z,548.00
2018-02-11T08:10:13.226Z,460.00
2018-02-11T08:11:13.183Z,496.00
2018-02-11T08:12:13.167Z,468.00
2018-02-11T08:13:13.146Z,444.00
2018-02-11T08:14:13.130Z,648.00
2018-02-11T08:15:13.109Z,860.00
2018-02-11T08:16:13.109Z,1060.00
2018-02-11T08:17:13.076Z,1112.00
2018-02-11T08:18:13.052Z,1220.00
2018-02-11T08:19:13.033Z,1628.00
2018-02-11T08:20:13.014Z,2144.00
2018-02-11T08:21:12.996Z,1996.00
2018-02-11T08:22:12.985Z,1632.00
2018-02-11T08:23:12.959Z,1336.00
2018-02-11T08:24:12.937Z,1688.00
2018-02-11T08:25:12.930Z,1188.00
2018-02-11T08:26:12.894Z,1092.00
2018-02-11T08:27:12.897Z,1376.00
2018-02-11T08:28:12.853Z,1416.00
2018-02-11T08:29:12.837Z,1704.00
2018-02-11T08:30:12.824Z,1664.00
2018-02-11T08:31:12.801Z,1904.00
2018-02-11T08:32:12.785Z,1864.00
2018-02-11T08:33:12.777Z,1876.00
2018-02-11T08:34:12.739Z,2088.00
2018-02-11T08:35:12.727Z,2152.00
2018-02-11T08:36:12.702Z,2316.00
2018-02-11T08:37:12.685Z,2404.00
2018-02-11T08:38:12.679Z,2576.00
2018-02-11T08:39:13.324Z,2968.00
2018-02-11T08:40:12.637Z,2988.00
2018-02-11T08:41:12.611Z,2960.00
2018-02-11T08:42:13.373Z,3040.00
2018-02-11T08:43:12.572Z,3252.00
2018-02-11T08:44:12.549Z,3356.00
2018-02-11T08:45:12.551Z,3304.00
2018-02-11T08:46:12.522Z,3452.00
2018-02-11T08:47:12.518Z,3672.00
2018-02-11T08:48:12.484Z,3708.00
2018-02-11T08:49:13.294Z,3696.00
2018-02-11T08:50:12.435Z,3824.00
2018-02-11T08:51:12.436Z,3960.00
2018-02-11T08:52:12.396Z,3868.00
2018-02-11T08:53:12.394Z,3968.00
2018-02-11T08:54:12.397Z,3920.00
2018-02-11T08:55:12.346Z,2676.00
2018-02-11T08:56:12.321Z,3736.00
2018-02-11T08:57:12.307Z,3324.00
2018-02-11T08:58:12.284Z,3936.00
2018-02-11T08:59:33.284Z,4268.00
2018-02-11T09:00:12.275Z,4588.00
2018-02-11T09:01:12.231Z,4176.00
2018-02-11T09:02:12.228Z,3792.00
2018-02-11T09:03:12.201Z,3580.00
2018-02-11T09:04:12.177Z,3028.00
2018-02-11T09:05:12.164Z,3420.00
2018-02-11T09:06:12.142Z,2988.00
2018-02-11T09:07:12.125Z,2880.00
2018-02-11T09:08:12.107Z,3232.00
2018-02-11T09:09:12.081Z,3208.00
2018-02-11T09:10:12.118Z,3012.00
2018-02-11T09:11:12.044Z,2884.00
2018-02-11T09:12:12.025Z,2860.00
2018-02-11T09:13:12.021Z,3376.00
2018-02-11T09:14:12.834Z,3740.00
2018-02-11T09:15:11.969Z,2528.00
2018-02-11T09:16:11.952Z,3252.00
2018-02-11T09:17:11.938Z,2816.00
2018-02-11T09:18:12.388Z,3172.00
2018-02-11T09:19:11.901Z,2788.00
2018-02-11T09:20:11.878Z,3292.00
2018-02-11T09:21:11.877Z,4420.00
2018-02-11T09:22:12.796Z,4708.00
2018-02-11T09:23:11.829Z,4884.00
2018-02-11T09:24:11.815Z,5168.00
2018-02-11T09:25:11.803Z,4932.00
2018-02-11T09:26:11.790Z,4680.00
2018-02-11T09:27:11.761Z,4672.00
2018-02-11T09:28:11.739Z,4580.00
2018-02-11T09:29:11.713Z,4424.00
2018-02-11T09:30:11.718Z,4176.00
2018-02-11T09:31:11.681Z,4040.00
2018-02-11T09:32:11.665Z,4216.00
2018-02-11T09:33:11.641Z,4452.00
2018-02-11T09:34:11.624Z,4212.00
2018-02-11T09:35:11.609Z,4140.00
2018-02-11T09:36:11.601Z,4432.00
2018-02-11T09:37:11.563Z,5008.00
2018-02-11T09:38:12.331Z,5276.00
2018-02-11T09:39:11.531Z,5212.00
2018-02-11T09:40:11.515Z,4844.00
2018-02-11T09:41:11.512Z,5136.00
2018-02-11T09:42:11.501Z,4684.00
2018-02-11T09:43:11.465Z,4688.00
2018-02-11T09:44:11.438Z,5652.00
2018-02-11T09:45:11.445Z,5688.00
2018-02-11T09:46:11.412Z,5996.00
2018-02-11T09:47:11.411Z,6380.00
2018-02-11T09:48:11.366Z,5708.00
2018-02-11T09:49:11.364Z,5704.00
2018-02-11T09:50:11.332Z,5956.00
2018-02-11T09:51:11.317Z,6000.00
2018-02-11T09:52:11.833Z,5684.00
2018-02-11T09:53:11.275Z,4292.00
2018-02-11T09:54:11.265Z,3540.00
2018-02-11T09:55:11.243Z,3500.00
2018-02-11T09:56:11.223Z,3400.00
2018-02-11T09:57:11.224Z,3180.00
2018-02-11T09:58:11.189Z,2636.00
2018-02-11T09:59:11.188Z,2396.00
2018-02-11T10:00:11.151Z,2460.00
2018-02-11T10:01:11.136Z,1908.00
2018-02-11T10:02:11.124Z,2208.00
2018-02-11T10:03:11.116Z,2276.00
2018-02-11T10:04:11.091Z,1972.00
2018-02-11T10:05:11.064Z,1992.00
2018-02-11T10:06:11.041Z,1804.00
2018-02-11T10:07:11.029Z,1796.00
2018-02-11T10:08:11.014Z,1780.00
2018-02-11T10:09:11.006Z,2288.00
2018-02-11T10:10:11.026Z,1268.00
2018-02-11T10:11:10.957Z,1512.00
2018-02-11T10:12:10.933Z,1408.00
2018-02-11T10:13:10.933Z,1192.00
2018-02-11T10:14:10.901Z,1404.00
2018-02-11T10:15:10.884Z,1488.00
2018-02-11T10:16:10.864Z,1856.00
2018-02-11T10:17:10.849Z,2004.00
2018-02-11T10:18:10.848Z,1896.00
2018-02-11T10:19:10.806Z,2484.00
2018-02-11T10:20:10.813Z,3920.00
2018-02-11T10:21:10.780Z,2684.00
2018-02-11T10:22:10.751Z,1284.00
2018-02-11T10:23:10.739Z,900.00
2018-02-11T10:24:10.717Z,804.00
2018-02-11T10:25:10.702Z,1340.00
2018-02-11T10:26:10.703Z,1328.00
2018-02-11T10:27:10.665Z,1368.00
2018-02-11T10:28:10.642Z,1000.00
2018-02-11T10:29:10.629Z,1680.00
2018-02-11T10:30:10.621Z,2340.00
2018-02-11T10:31:10.591Z,2724.00
2018-02-11T10:32:10.571Z,3468.00
2018-02-11T10:33:10.551Z,2464.00
2018-02-11T10:34:10.533Z,1624.00
2018-02-11T10:35:10.518Z,1140.00
2018-02-11T10:36:10.529Z,1620.00
2018-02-11T10:37:10.481Z,2208.00
2018-02-11T10:38:10.474Z,3016.00
2018-02-11T10:39:10.446Z,2968.00
2018-02-11T10:40:11.340Z,3012.00
2018-02-11T10:41:10.423Z,2656.00
2018-02-11T10:42:10.386Z,3164.00
2018-02-11T10:43:10.375Z,5344.00
2018-02-11T10:44:10.353Z,9188.00
2018-02-11T10:45:10.360Z,12868.00
2018-02-11T10:46:10.323Z,12836.00
2018-02-11T10:47:10.313Z,9820.00
2018-02-11T10:48:10.279Z,8036.00
2018-02-11T10:49:10.272Z,5172.00
2018-02-11T10:50:10.239Z,4684.00
2018-02-11T10:51:10.241Z,5584.00
2018-02-11T10:52:10.201Z,8568.00
2018-02-11T10:53:10.190Z,10040.00
2018-02-11T10:54:10.177Z,9848.00
2018-02-11T10:55:10.156Z,9692.00
2018-02-11T10:56:10.149Z,6368.00
2018-02-11T10:57:10.189Z,3940.00
2018-02-11T10:58:10.097Z,2948.00
2018-02-11T10:59:10.843Z,3176.00
2018-02-11T11:00:10.068Z,3964.00
2018-02-11T11:01:10.064Z,5344.00
2018-02-11T11:02:10.030Z,10996.00
2018-02-11T11:03:10.035Z,9476.00
2018-02-11T11:04:09.992Z,11708.00
2018-02-11T11:05:09.989Z,9596.00
2018-02-11T11:06:09.995Z,7432.00
2018-02-11T11:07:09.943Z,6632.00
2018-02-11T11:08:09.925Z,5600.00
2018-02-11T11:09:09.907Z,5032.00
2018-02-11T11:10:09.898Z,5272.00
2018-02-11T11:11:09.877Z,5444.00
2018-02-11T11:12:09.874Z,4592.00
2018-02-11T11:13:10.341Z,3396.00
2018-02-11T11:14:09.825Z,3280.00
2018-02-11T11:15:09.804Z,2868.00
2018-02-11T11:16:10.351Z,1968.00
2018-02-11T11:17:09.794Z,1304.00
2018-02-11T11:18:09.779Z,944.00
2018-02-11T11:19:09.794Z,752.00
2018-02-11T11:20:09.756Z,624.00
2018-02-11T11:21:09.697Z,728.00
2018-02-11T11:22:09.714Z,1404.00
2018-02-11T11:23:09.658Z,1768.00
2018-02-11T11:24:09.662Z,2028.00
2018-02-11T11:25:09.628Z,2080.00
2018-02-11T11:26:09.624Z,1720.00
2018-02-11T11:27:09.614Z,1620.00
2018-02-11T11:28:09.574Z,1340.00
2018-02-11T11:29:09.560Z,988.00
2018-02-11T11:30:09.571Z,1016.00
2018-02-11T11:31:09.521Z,1180.00
2018-02-11T11:32:09.512Z,824.00
2018-02-11T11:33:09.489Z,1008.00
2018-02-11T11:34:09.469Z,2092.00
2018-02-11T11:35:09.447Z,2744.00
2018-02-11T11:36:09.447Z,2684.00
2018-02-11T11:37:09.412Z,2456.00
2018-02-11T11:38:09.404Z,1408.00
2018-02-11T11:39:09.408Z,1820.00
2018-02-11T11:40:09.370Z,2696.00
2018-02-11T11:41:09.336Z,6344.00
2018-02-11T11:42:09.316Z,8624.00
2018-02-11T11:43:09.302Z,8304.00
2018-02-11T11:44:09.302Z,7484.00
2018-02-11T11:45:09.273Z,8104.00
2018-02-11T11:46:09.265Z,6336.00
2018-02-11T11:47:09.261Z,5368.00
2018-02-11T11:48:09.216Z,4856.00
2018-02-11T11:49:09.203Z,6024.00
2018-02-11T11:50:09.201Z,6832.00
2018-02-11T11:51:09.187Z,4260.00
2018-02-11T11:52:09.143Z,2604.00
2018-02-11T11:53:09.136Z,2740.00
2018-02-11T11:54:09.126Z,4168.00
2018-02-11T11:55:09.112Z,4184.00
2018-02-11T11:56:09.074Z,4972.00
2018-02-11T11:57:09.055Z,5308.00
2018-02-11T11:58:09.035Z,8840.00
2018-02-11T11:59:09.018Z,14752.00
2018-02-11T12:00:09.025Z,6740.00
2018-02-11T12:01:09.007Z,9200.00
2018-02-11T12:02:08.960Z,4856.00
2018-02-11T12:03:08.953Z,4252.00
2018-02-11T12:04:08.934Z,5064.00
2018-02-11T12:05:08.913Z,7744.00
2018-02-11T12:06:08.895Z,9464.00
2018-02-11T12:07:08.897Z,15136.00
2018-02-11T12:08:08.871Z,16992.00
2018-02-11T12:09:08.843Z,19968.00
2018-02-11T12:10:08.832Z,18048.00
2018-02-11T12:11:08.803Z,10428.00
2018-02-11T12:12:08.803Z,10188.00
2018-02-11T12:13:08.770Z,12396.00
2018-02-11T12:14:08.755Z,12888.00
2018-02-11T12:15:08.736Z,11540.00
2018-02-11T12:16:08.741Z,13428.00
2018-02-11T12:17:08.719Z,8424.00
2018-02-11T12:18:08.722Z,8584.00
2018-02-11T12:19:08.680Z,7244.00
2018-02-11T12:20:08.652Z,6128.00
2018-02-11T12:21:08.648Z,4428.00
2018-02-11T12:22:08.650Z,4532.00
2018-02-11T12:23:08.607Z,3984.00
2018-02-11T12:24:08.612Z,5796.00
2018-02-11T12:25:08.578Z,5984.00
2018-02-11T12:26:08.562Z,4672.00
2018-02-11T12:27:08.558Z,4016.00
2018-02-11T12:28:08.545Z,5152.00
2018-02-11T12:29:08.542Z,5296.00
2018-02-11T12:30:08.496Z,3612.00
2018-02-11T12:31:08.476Z,2768.00
2018-02-11T12:32:08.500Z,2972.00
2018-02-11T12:33:08.440Z,2976.00
2018-02-11T12:34:09.339Z,1744.00
2018-02-11T12:35:08.404Z,1884.00
2018-02-11T12:36:08.416Z,1580.00
2018-02-11T12:37:09.320Z,1684.00
2018-02-11T12:38:08.373Z,1708.00
2018-02-11T12:39:08.355Z,1788.00
2018-02-11T12:40:08.326Z,1736.00
2018-02-11T12:41:08.300Z,2060.00
2018-02-11T12:42:08.283Z,4420.00
2018-02-11T12:43:08.278Z,3648.00
2018-02-11T12:44:08.274Z,2784.00
2018-02-11T12:45:08.235Z,1916.00